Time;durP1;ratioP1;P1;durP2;ratioP2;P2;SDS_P1;SDS_P2;PMS_P1;PMS_P2;Temp;Humidity;BMP_temperature;BMP_pressure;BME280_temperature;BME280_humidity;BME280_pressure;Samples;Min_cycle;Max_cycle;Signal;HPM_P1;HPM_P2
2022/03/28 00:01:31;;;;;;;17.58;13.75;;;;;;;11.93;45.03;99620.25;4916374;29;20051;-49
2022/03/28 00:03:57;;;;;;;22.75;14.25;;;;;;;11.56;45.49;99620.19;4916185;29;20076;-50
2022/03/28 00:06:23;;;;;;;19.02;13.50;;;;;;;11.40;46.62;99615.94;4916474;29;20020;-50
2022/03/28 00:08:49;;;;;;;20.65;13.27;;;;;;;11.31;46.99;99619.69;4915070;29;20072;-50
2022/03/28 00:11:16;;;;;;;20.30;13.68;;;;;;;11.43;46.12;99620.06;4916234;29;20024;-50
2022/03/28 00:13:41;;;;;;;18.48;12.90;;;;;;;11.79;45.31;99619.25;4916555;29;20035;-50
2022/03/28 00:16:08;;;;;;;22.38;13.93;;;;;;;12.10;44.40;99605.84;4916234;29;20024;-49
2022/03/28 00:18:33;;;;;;;25.15;14.65;;;;;;;12.26;44.13;99609.25;4916154;29;20509;-49
2022/03/28 00:20:59;;;;;;;30.70;13.82;;;;;;;12.41;44.08;99609.19;4916175;29;20020;-50
2022/03/28 00:23:25;;;;;;;14.85;12.48;;;;;;;12.46;43.70;99602.34;4914848;29;20119;-50
2022/03/28 00:25:51;;;;;;;21.23;13.75;;;;;;;12.51;43.13;99599.13;4915904;29;20044;-49
2022/03/28 00:28:18;;;;;;;17.60;12.82;;;;;;;12.37;43.08;99599.03;4916047;29;20067;-50
2022/03/28 00:30:44;;;;;;;18.45;13.90;;;;;;;12.31;43.59;99594.50;4915948;29;20063;-50
2022/03/28 00:33:09;;;;;;;17.42;13.90;;;;;;;12.25;43.50;99597.88;4915983;29;20024;-51
2022/03/28 00:35:35;;;;;;;22.38;14.13;;;;;;;12.17;43.53;99593.59;4914911;29;20036;-50
2022/03/28 00:38:05;;;;;;;21.80;13.93;;;;;;;12.03;43.85;99594.44;4915942;29;20446;-49
2022/03/28 00:40:32;;;;;;;17.98;14.48;;;;;;;11.81;43.94;99588.31;4914592;29;20055;-50
2022/03/28 00:43:03;;;;;;;20.60;14.18;;;;;;;11.58;44.70;99586.66;4914556;29;20059;-49
2022/03/28 00:45:32;;;;;;;18.85;14.65;;;;;;;11.44;45.18;99584.88;4915856;29;20020;-50
2022/03/28 00:47:59;;;;;;;23.15;15.43;;;;;;;11.35;45.76;99584.16;4915823;29;20104;-50
2022/03/28 00:50:26;;;;;;;19.33;14.02;;;;;;;11.21;45.90;99585.00;4915747;29;20059;-50
2022/03/28 00:52:51;;;;;;;24.20;14.60;;;;;;;11.11;46.08;99585.25;4915714;29;20574;-49
2022/03/28 00:55:17;;;;;;;22.83;15.25;;;;;;;11.12;46.09;99581.63;4915731;29;20106;-50
2022/03/28 00:57:43;;;;;;;22.25;14.55;;;;;;;11.10;45.94;99583.63;4914431;29;20460;-50
2022/03/28 01:00:10;;;;;;;22.02;15.23;;;;;;;10.87;46.62;99573.22;4915694;29;20398;-50
2022/03/28 01:02:37;;;;;;;19.77;13.80;;;;;;;10.75;46.89;99575.47;4915713;29;20032;-49
2022/03/28 01:05:03;;;;;;;19.95;15.43;;;;;;;10.77;46.79;99570.03;4915629;29;20414;-50
2022/03/28 01:07:29;;;;;;;17.50;13.95;;;;;;;10.73;46.61;99574.81;4914361;29;20020;-50
2022/03/28 01:09:58;;;;;;;21.80;14.93;;;;;;;10.70;46.78;99572.53;4915686;29;20410;-50
2022/03/28 01:12:26;;;;;;;18.63;14.63;;;;;;;10.62;46.97;99563.94;4915488;29;20031;-49
2022/03/28 01:14:54;;;;;;;17.23;13.60;;;;;;;10.64;46.92;99567.19;4914580;29;20024;-50
2022/03/28 01:20:05;;;;;;;18.83;13.50;;;;;;;10.49;47.07;99575.88;4919466;29;20161;-50
2022/03/28 01:22:30;;;;;;;33.20;19.20;;;;;;;10.41;47.71;99569.88;4919401;29;20080;-49
2022/03/28 01:25:01;;;;;;;18.02;12.60;;;;;;;10.47;47.48;99577.84;4919123;29;20463;-50
2022/03/28 01:27:28;;;;;;;15.95;12.95;;;;;;;10.57;46.86;99573.16;4919321;29;20032;-50
2022/03/28 01:29:54;;;;;;;18.75;13.70;;;;;;;10.57;46.73;99564.47;4919238;29;20051;-50
2022/03/28 01:32:20;;;;;;;21.50;16.77;;;;;;;10.66;47.01;99554.72;4919108;29;20032;-50
2022/03/28 01:34:45;;;;;;;19.35;13.68;;;;;;;10.71;47.07;99555.00;4917870;29;20502;-49
2022/03/28 01:37:11;;;;;;;24.13;13.68;;;;;;;10.64;47.14;99549.63;4919091;29;20028;-50
2022/03/28 01:39:37;;;;;;;17.83;12.50;;;;;;;10.56;47.36;99553.16;4919041;29;20025;-50
2022/03/28 01:42:04;;;;;;;23.40;12.55;;;;;;;10.49;47.17;99548.81;4919032;29;20036;-50
2022/03/28 01:44:30;;;;;;;19.05;12.25;;;;;;;10.48;47.96;99545.34;4917670;29;20387;-49
2022/03/28 01:46:56;;;;;;;21.27;15.30;;;;;;;10.67;47.22;99545.84;4918900;29;20084;-50
2022/03/28 01:49:21;;;;;;;17.25;11.75;;;;;;;10.76;47.01;99548.19;4918888;29;20035;-50
2022/03/28 01:51:49;;;;;;;16.25;11.15;;;;;;;10.64;47.10;99536.50;4917466;29;20067;-50
2022/03/28 01:54:15;;;;;;;20.38;11.40;;;;;;;10.62;47.13;99537.69;4918762;29;20075;-49
2022/03/28 01:56:42;;;;;;;18.00;11.75;;;;;;;10.43;47.56;99539.03;4917415;29;20035;-50
2022/03/28 01:59:08;;;;;;;12.38;10.05;;;;;;;10.32;47.58;99535.84;4918732;29;20021;-50
2022/03/28 02:01:35;;;;;;;18.67;10.82;;;;;;;10.22;47.68;99544.91;4918587;29;20071;-50
2022/03/28 02:04:01;;;;;;;18.73;11.13;;;;;;;10.10;48.27;99541.88;4918636;29;20024;-50
2022/03/28 02:06:28;;;;;;;17.98;11.00;;;;;;;10.06;48.48;99536.19;4917246;29;20028;-49
2022/03/28 02:08:54;;;;;;;14.07;10.40;;;;;;;10.05;48.56;99539.78;4918534;29;20043;-50
2022/03/28 02:11:20;;;;;;;16.13;12.18;;;;;;;10.01;48.69;99535.88;4918412;29;20107;-49
2022/03/28 02:13:46;;;;;;;20.65;13.55;;;;;;;10.08;48.58;99536.00;4917226;29;20048;-49
2022/03/28 02:16:12;;;;;;;18.15;12.63;;;;;;;10.01;48.60;99530.63;4918670;29;20079;-50
2022/03/28 02:18:38;;;;;;;19.27;12.90;;;;;;;9.96;48.65;99527.72;4918373;29;20028;-49
2022/03/28 02:21:04;;;;;;;16.73;12.93;;;;;;;9.96;48.60;99527.72;4917035;29;20084;-50
2022/03/28 02:23:30;;;;;;;17.00;11.85;;;;;;;9.98;48.24;99528.38;4918294;29;20032;-49
2022/03/28 02:25:56;;;;;;;18.08;12.65;;;;;;;10.07;48.78;99535.19;4916505;29;20131;-50
2022/03/28 02:28:22;;;;;;;25.25;16.92;;;;;;;10.10;48.12;99531.38;4918182;29;20020;-49
2022/03/28 02:30:48;;;;;;;19.75;12.43;;;;;;;9.96;47.95;99532.97;4918107;29;20570;-49
2022/03/28 02:33:13;;;;;;;20.00;12.80;;;;;;;9.94;48.48;99529.69;4916788;29;20494;-50
2022/03/28 02:35:40;;;;;;;19.77;11.23;;;;;;;9.83;47.83;99530.94;4918122;29;20021;-49
2022/03/28 02:38:07;;;;;;;13.50;11.43;;;;;;;9.77;48.87;99529.81;4918063;29;20031;-49
2022/03/28 02:40:33;;;;;;;17.77;12.23;;;;;;;9.79;48.84;99532.28;4916734;29;20510;-50
2022/03/28 02:43:00;;;;;;;16.80;11.07;;;;;;;9.89;48.50;99529.41;4917974;29;20043;-50
2022/03/28 02:45:26;;;;;;;17.40;13.13;;;;;;;9.92;48.69;99536.91;4916638;29;20062;-49
2022/03/28 02:47:52;;;;;;;17.45;11.43;;;;;;;9.97;48.22;99531.97;4917776;29;20087;-50
2022/03/28 02:50:18;;;;;;;15.50;12.30;;;;;;;9.98;48.09;99529.19;4916474;29;20032;-50
2022/03/28 02:52:44;;;;;;;18.55;12.05;;;;;;;9.91;48.27;99537.94;4917718;29;20462;-50
2022/03/28 02:55:10;;;;;;;17.08;12.57;;;;;;;9.88;48.30;99535.66;4917691;29;20163;-49
2022/03/28 02:57:36;;;;;;;19.38;11.07;;;;;;;9.80;48.09;99534.72;4917700;29;20032;-50
2022/03/28 03:00:07;;;;;;;21.48;13.52;;;;;;;9.82;48.68;99531.94;4917668;29;20107;-50
2022/03/28 03:02:42;;;;;;;23.20;13.75;;;;;;;9.90;47.98;99536.28;4917661;29;20520;-49
2022/03/28 03:05:09;;;;;;;21.85;13.70;;;;;;;9.90;48.37;99541.53;4917518;29;20040;-48
2022/03/28 03:07:35;;;;;;;17.63;11.55;;;;;;;9.96;48.29;99528.56;4917659;29;20028;-50
2022/03/28 03:10:01;;;;;;;18.92;10.73;;;;;;;10.02;47.87;99527.03;4917417;29;20406;-49
2022/03/28 03:12:27;;;;;;;14.70;11.48;;;;;;;10.10;48.11;99521.72;4917353;29;20047;-50
2022/03/28 03:14:53;;;;;;;31.15;27.27;;;;;;;9.92;47.95;99522.03;4916110;29;20157;-50
2022/03/28 03:17:19;;;;;;;20.75;12.27;;;;;;;9.74;48.42;99526.75;4917304;29;20075;-50
2022/03/28 03:19:45;;;;;;;16.77;11.45;;;;;;;9.78;48.53;99523.59;4916019;29;20032;-50
2022/03/28 03:22:14;;;;;;;14.55;11.02;;;;;;;9.86;47.76;99519.28;4917259;29;20201;-50
2022/03/28 03:24:43;;;;;;;15.55;11.10;;;;;;;9.88;48.30;99515.50;4916992;29;20071;-50
2022/03/28 03:27:09;;;;;;;14.43;11.13;;;;;;;9.97;48.05;99511.00;4917693;29;20036;-49
2022/03/28 03:29:36;;;;;;;13.95;10.82;;;;;;;9.96;47.48;99517.22;4915837;29;20459;-49
2022/03/28 03:32:03;;;;;;;15.13;11.02;;;;;;;9.85;47.98;99515.03;4916976;29;20024;-49
2022/03/28 03:34:33;;;;;;;15.98;10.98;;;;;;;9.86;47.96;99520.09;4915732;29;20034;-49
2022/03/28 03:36:58;;;;;;;14.98;10.80;;;;;;;9.84;47.33;99529.13;4915678;29;20055;-49
2022/03/28 03:39:25;;;;;;;16.90;11.35;;;;;;;9.89;47.45;99524.19;4916585;29;20479;-50
2022/03/28 03:41:54;;;;;;;19.67;13.00;;;;;;;9.84;47.32;99522.09;4916865;29;20107;-50
2022/03/28 03:44:20;;;;;;;15.20;11.60;;;;;;;9.71;47.90;99524.47;4916795;29;20111;-49
2022/03/28 03:46:47;;;;;;;17.88;11.95;;;;;;;9.49;47.79;99526.06;4916808;29;20107;-50
2022/03/28 03:49:13;;;;;;;15.02;11.88;;;;;;;9.36;48.43;99531.88;4915391;29;20392;-50
2022/03/28 03:51:39;;;;;;;16.80;10.45;;;;;;;9.27;48.31;99535.50;4916635;29;20033;-50
2022/03/28 03:54:05;;;;;;;19.20;12.10;;;;;;;9.26;48.52;99532.09;4916880;29;20483;-50
2022/03/28 03:56:31;;;;;;;18.27;11.45;;;;;;;9.11;49.25;99531.16;4916618;29;20048;-50
2022/03/28 03:58:58;;;;;;;16.67;11.88;;;;;;;9.07;49.65;99532.47;4915248;29;20032;-49
2022/03/28 04:01:26;;;;;;;23.67;10.73;;;;;;;9.10;49.35;99526.91;4916489;29;20403;-49
2022/03/28 04:03:52;;;;;;;12.52;10.63;;;;;;;9.17;49.50;99533.91;4916554;29;20041;-50
2022/03/28 04:06:18;;;;;;;14.43;11.13;;;;;;;9.19;48.89;99531.13;4916459;29;20024;-49
2022/03/28 04:08:44;;;;;;;21.17;10.27;;;;;;;9.21;49.13;99531.75;4916410;29;20405;-50
2022/03/28 04:11:10;;;;;;;18.58;10.65;;;;;;;9.26;48.91;99529.47;4916282;29;20022;-49
2022/03/28 04:13:36;;;;;;;19.77;10.90;;;;;;;9.46;48.61;99523.81;4916361;29;20088;-49
2022/03/28 04:16:02;;;;;;;12.70;10.43;;;;;;;9.52;48.48;99521.31;4916194;29;20107;-50
2022/03/28 04:18:28;;;;;;;19.02;10.32;;;;;;;9.45;48.63;99527.41;4914910;29;20495;-49
2022/03/28 04:20:55;;;;;;;15.40;9.90;;;;;;;9.39;47.95;99542.00;4916157;29;20091;-49
2022/03/28 04:23:22;;;;;;;18.30;10.43;;;;;;;9.26;48.64;99539.13;4914863;29;20061;-49
2022/03/28 04:25:48;;;;;;;21.10;10.68;;;;;;;9.16;48.61;99537.53;4914604;29;20059;-49
2022/03/28 04:28:13;;;;;;;21.02;12.60;;;;;;;9.24;49.46;99544.53;4916114;29;20036;-49
2022/03/28 04:30:39;;;;;;;15.57;10.80;;;;;;;9.30;48.90;99545.66;4916053;29;20061;-49
2022/03/28 04:33:09;;;;;;;16.80;10.63;;;;;;;9.28;48.73;99539.78;4914639;29;20524;-49
2022/03/28 04:35:39;;;;;;;19.40;10.88;;;;;;;9.38;48.87;99538.56;4915972;29;20051;-50
2022/03/28 04:38:09;;;;;;;15.30;10.75;;;;;;;9.47;48.20;99541.94;4914670;29;20436;-49
2022/03/28 04:40:37;;;;;;;14.70;9.80;;;;;;;9.49;48.74;99541.78;4915882;29;20028;-49
2022/03/28 04:43:04;;;;;;;15.95;10.60;;;;;;;9.64;48.10;99539.25;4915874;29;20529;-49
2022/03/28 04:45:30;;;;;;;16.45;9.68;;;;;;;9.64;47.75;99545.31;4915872;29;20043;-49
2022/03/28 04:48:00;;;;;;;15.82;10.57;;;;;;;9.66;48.08;99545.13;4914538;29;20115;-50
2022/03/28 04:50:26;;;;;;;19.35;10.48;;;;;;;9.73;48.08;99541.63;4913619;29;20087;-50
2022/03/28 04:52:51;;;;;;;13.98;9.60;;;;;;;10.05;47.48;99536.34;4914374;29;20032;-50
2022/03/28 04:55:17;;;;;;;12.35;9.30;;;;;;;10.32;48.03;99530.59;4914396;29;20039;-50
2022/03/28 04:57:43;;;;;;;16.75;12.52;;;;;;;10.24;47.35;99532.41;4915708;29;20021;-49
2022/03/28 05:00:11;;;;;;;13.98;10.82;;;;;;;9.88;48.21;99540.88;4915654;29;20024;-50
2022/03/28 05:02:37;;;;;;;15.38;10.43;;;;;;;9.70;47.64;99538.53;4915664;29;20469;-50
2022/03/28 05:05:04;;;;;;;18.58;10.68;;;;;;;9.54;47.80;99534.25;4915627;29;20032;-49
2022/03/28 05:07:30;;;;;;;17.98;10.50;;;;;;;9.40;47.78;99547.06;4914351;29;20047;-50
2022/03/28 05:09:57;;;;;;;14.88;12.40;;;;;;;9.28;47.76;99545.81;4915558;29;20020;-49
2022/03/28 05:12:24;;;;;;;23.05;18.85;;;;;;;9.16;48.10;99548.00;4915457;29;20021;-49
2022/03/28 05:14:51;;;;;;;36.35;25.88;;;;;;;9.09;48.03;99543.59;4915552;29;20131;-49
2022/03/28 05:17:30;;;;;;;16.77;14.32;;;;;;;8.96;48.04;99554.63;4915564;29;20043;-47
2022/03/28 05:19:57;;;;;;;27.55;23.73;;;;;;;8.99;48.56;99549.03;4915552;29;20036;-49
2022/03/28 05:22:23;;;;;;;15.32;11.25;;;;;;;9.00;48.19;99556.72;4915476;29;20032;-50
2022/03/28 05:24:54;;;;;;;16.08;10.25;;;;;;;8.97;48.09;99557.06;4915221;29;20043;-49
2022/03/28 05:27:20;;;;;;;20.27;10.90;;;;;;;9.08;48.57;99550.66;4914107;29;20379;-50
2022/03/28 05:29:47;;;;;;;17.13;10.88;;;;;;;9.21;48.08;99550.09;4915453;29;20032;-49
2022/03/28 05:32:13;;;;;;;20.85;10.38;;;;;;;9.28;48.02;99547.63;4915311;29;20028;-49
2022/03/28 05:34:39;;;;;;;34.40;10.77;;;;;;;9.28;47.66;99545.81;4915389;29;20020;-49
2022/03/28 05:37:09;;;;;;;15.88;9.43;;;;;;;9.34;47.50;99545.13;4915330;29;20040;-50
2022/03/28 05:39:36;;;;;;;22.35;9.60;;;;;;;9.32;47.35;99541.88;4914043;29;20039;-49
2022/03/28 05:42:04;;;;;;;12.18;9.57;;;;;;;9.28;47.44;99553.69;4915344;29;20035;-49
2022/03/28 05:44:30;;;;;;;13.23;9.77;;;;;;;9.31;47.28;99548.09;4914077;29;20048;-49
2022/03/28 05:46:56;;;;;;;15.00;9.20;;;;;;;9.52;46.97;99534.41;4915245;29;20094;-49
2022/03/28 05:49:25;;;;;;;14.43;9.73;;;;;;;9.82;46.41;99544.22;4915265;29;20056;-50
2022/03/28 05:51:52;;;;;;;16.95;10.05;;;;;;;10.06;45.28;99538.81;4915085;29;20147;-50
2022/03/28 05:54:19;;;;;;;15.48;9.77;;;;;;;10.11;44.87;99544.31;4915238;29;20024;-49
2022/03/28 05:56:45;;;;;;;16.40;9.65;;;;;;;10.20;44.50;99545.06;4913934;29;20189;-49
2022/03/28 05:59:11;;;;;;;13.75;9.45;;;;;;;10.34;44.45;99552.22;4915215;29;20499;-49
2022/03/28 06:01:37;;;;;;;17.50;9.60;;;;;;;10.71;43.65;99541.88;4915256;29;20036;-49
2022/03/28 06:04:04;;;;;;;17.17;9.85;;;;;;;10.97;42.82;99538.81;4917444;29;20611;-49
2022/03/28 06:06:34;;;;;;;18.45;9.95;;;;;;;10.86;42.81;99524.28;4917331;29;20495;-49
2022/03/28 06:09:01;;;;;;;19.98;9.98;;;;;;;10.74;43.31;99528.38;4918560;29;20392;-49
2022/03/28 06:11:27;;;;;;;18.60;10.45;;;;;;;10.97;42.89;99534.34;4917187;29;20028;-49
2022/03/28 06:13:57;;;;;;;20.13;10.02;;;;;;;11.47;42.39;99533.72;4918511;29;20024;-49
2022/03/28 06:16:24;;;;;;;13.88;9.48;;;;;;;11.95;41.14;99527.00;4918561;29;20395;-49
2022/03/28 06:18:50;;;;;;;17.33;11.13;;;;;;;12.47;40.36;99532.06;4918452;29;20047;-49
2022/03/28 06:21:16;;;;;;;29.05;15.45;;;;;;;12.95;39.33;99535.59;4918330;29;20502;-50
2022/03/28 06:23:42;;;;;;;15.48;10.52;;;;;;;13.11;38.64;99531.03;4918304;29;20099;-49
2022/03/28 06:26:10;;;;;;;13.88;10.43;;;;;;;12.97;38.85;99530.97;4918086;29;20036;-50
2022/03/28 06:28:38;;;;;;;22.35;10.40;;;;;;;12.90;38.58;99529.31;4918264;29;20034;-49
2022/03/28 06:31:04;;;;;;;14.82;10.00;;;;;;;12.84;38.97;99536.16;4918056;29;20024;-50
2022/03/28 06:33:30;;;;;;;20.48;10.88;;;;;;;12.97;39.10;99538.84;4918162;29;20414;-50
2022/03/28 06:35:56;;;;;;;21.25;10.07;;;;;;;13.34;38.74;99539.47;4918096;29;20028;-50
2022/03/28 06:38:22;;;;;;;23.67;9.55;;;;;;;13.90;37.38;99534.94;4918086;29;20047;-50
2022/03/28 06:40:48;;;;;;;16.85;10.30;;;;;;;14.19;36.71;99539.06;4916682;29;20028;-50
2022/03/28 06:43:14;;;;;;;22.35;10.63;;;;;;;14.42;36.56;99537.81;4918017;29;20039;-50
2022/03/28 06:45:40;;;;;;;22.13;10.50;;;;;;;14.85;35.64;99540.84;4918213;29;20088;-50
2022/03/28 06:48:06;;;;;;;17.38;9.52;;;;;;;15.19;34.78;99544.19;4917880;29;20048;-50
2022/03/28 06:50:34;;;;;;;23.75;11.80;;;;;;;15.56;33.94;99533.88;4916565;29;20039;-50
2022/03/28 06:53:01;;;;;;;19.63;10.07;;;;;;;16.09;32.98;99533.53;4917733;29;20024;-50
2022/03/28 06:55:27;;;;;;;17.83;9.73;;;;;;;16.49;32.21;99529.75;4917717;29;20034;-50
2022/03/28 06:57:52;;;;;;;17.33;10.00;;;;;;;16.57;31.68;99535.56;4917694;29;20021;-50
2022/03/28 07:00:19;;;;;;;16.70;10.43;;;;;;;16.94;31.92;99532.19;4916347;29;20039;-50
2022/03/28 07:02:45;;;;;;;13.02;9.90;;;;;;;17.75;30.48;99530.97;4917597;29;20403;-51
2022/03/28 07:05:11;;;;;;;22.67;8.65;;;;;;;18.43;29.90;99518.28;4917574;29;20376;-51
2022/03/28 07:07:46;;;;;;;20.77;10.70;;;;;;;19.17;28.99;99509.75;4917575;29;20075;-51
2022/03/28 07:10:14;;;;;;;17.50;9.95;;;;;;;19.74;28.40;99511.66;4916507;29;20036;-51
2022/03/28 07:12:41;;;;;;;21.40;9.32;;;;;;;20.48;27.40;99510.66;4916448;29;20024;-51
2022/03/28 07:15:09;;;;;;;16.95;10.48;;;;;;;20.95;26.13;99508.38;4917333;29;20032;-51
2022/03/28 07:17:58;;;;;;;18.65;10.45;;;;;;;20.90;25.94;99502.97;4917361;29;20521;-51
2022/03/28 07:20:26;;;;;;;13.50;9.52;;;;;;;21.41;25.52;99504.59;4916105;29;20442;-51
2022/03/28 07:22:53;;;;;;;20.48;9.70;;;;;;;22.09;25.11;99489.78;4917262;29;20020;-50
2022/03/28 07:25:20;;;;;;;20.67;9.55;;;;;;;22.56;23.50;99492.75;4916972;29;20138;-50
2022/03/28 07:27:47;;;;;;;21.02;9.05;;;;;;;22.34;23.99;99493.72;4915872;29;20028;-50
2022/03/28 07:30:14;;;;;;;24.35;9.00;;;;;;;22.73;23.32;99490.69;4917105;29;20499;-51
2022/03/28 07:32:41;;;;;;;17.35;10.10;;;;;;;22.48;23.38;99489.50;4916974;29;20072;-51
2022/03/28 07:35:08;;;;;;;18.73;9.02;;;;;;;22.27;23.70;99488.56;4917023;29;20051;-51
2022/03/28 07:37:35;;;;;;;18.17;8.98;;;;;;;22.70;23.38;99491.25;4916979;29;20091;-51
2022/03/28 07:40:05;;;;;;;25.40;10.05;;;;;;;23.30;24.62;99487.19;4915657;29;20025;-51
2022/03/28 07:42:33;;;;;;;17.77;9.05;;;;;;;23.55;22.75;99487.50;4916975;29;20071;-51
2022/03/28 07:44:59;;;;;;;20.55;9.00;;;;;;;23.83;22.15;99486.22;4916989;29;20533;-50
2022/03/28 07:47:25;;;;;;;19.23;8.73;;;;;;;23.99;21.87;99479.78;4916799;29;20059;-51
2022/03/28 07:49:52;;;;;;;16.67;8.82;;;;;;;24.22;22.69;99480.28;4916760;29;20028;-51
2022/03/28 07:52:19;;;;;;;19.85;8.75;;;;;;;24.29;21.81;99484.28;4916634;29;20368;-51
2022/03/28 07:54:46;;;;;;;21.05;8.85;;;;;;;24.62;21.28;99481.28;4916648;29;20107;-51
2022/03/28 07:57:14;;;;;;;19.45;8.82;;;;;;;24.80;21.57;99477.19;4916642;29;20032;-50
2022/03/28 07:59:41;;;;;;;19.60;8.93;;;;;;;24.88;21.48;99474.75;4915300;29;20125;-51
2022/03/28 08:02:07;;;;;;;23.80;8.85;;;;;;;25.34;20.65;99465.66;4915304;29;20078;-51
2022/03/28 08:04:33;;;;;;;19.30;8.90;;;;;;;25.95;20.45;99469.00;4916511;29;20380;-51
2022/03/28 08:07:00;;;;;;;12.77;7.85;;;;;;;26.32;19.18;99463.00;4916493;29;20116;-50
2022/03/28 08:09:25;;;;;;;16.02;8.95;;;;;;;26.72;19.50;99465.53;4916417;29;20038;-52
2022/03/28 08:11:52;;;;;;;20.63;9.48;;;;;;;27.11;19.32;99454.50;4914957;29;20114;-50
2022/03/28 08:14:17;;;;;;;15.38;8.73;;;;;;;27.50;18.95;99461.50;4915184;29;20058;-50
2022/03/28 08:16:43;;;;;;;18.52;8.50;;;;;;;27.68;18.62;99451.78;4915029;29;20463;-51
2022/03/28 08:19:09;;;;;;;19.33;9.23;;;;;;;28.07;19.13;99453.28;4916284;29;20071;-51
2022/03/28 08:21:34;;;;;;;16.55;9.77;;;;;;;28.40;18.18;99445.13;4914905;29;20063;-50
2022/03/28 08:24:00;;;;;;;12.73;8.50;;;;;;;28.25;17.61;99451.63;4914532;29;20028;-50
2022/03/28 08:26:26;;;;;;;17.95;8.07;;;;;;;27.66;17.88;99446.69;4916181;29;20032;-50
2022/03/28 08:28:53;;;;;;;15.50;8.20;;;;;;;27.25;18.28;99451.91;4916113;29;20035;-51
2022/03/28 08:31:19;;;;;;;13.63;8.00;;;;;;;27.35;17.84;99446.38;4914727;29;20035;-51
2022/03/28 08:33:44;;;;;;;26.30;8.27;;;;;;;27.74;17.77;99445.19;4915992;29;20028;-51
2022/03/28 08:36:10;;;;;;;21.20;8.70;;;;;;;28.32;17.56;99438.53;4915981;29;20394;-50
2022/03/28 08:38:38;;;;;;;16.27;9.32;;;;;;;28.72;17.35;99441.53;4915949;29;20028;-51
2022/03/28 08:41:06;;;;;;;13.38;8.18;;;;;;;28.99;17.16;99439.88;4914643;29;20064;-51
2022/03/28 08:43:32;;;;;;;13.20;8.48;;;;;;;29.30;17.05;99431.91;4915883;29;20030;-51
2022/03/28 08:46:01;;;;;;;16.08;7.50;;;;;;;29.30;16.13;99431.91;4915845;29;20394;-51
2022/03/28 08:48:33;;;;;;;17.17;7.90;;;;;;;29.64;16.02;99433.25;4915814;29;20035;-51
2022/03/28 08:50:59;;;;;;;20.65;8.85;;;;;;;30.16;16.27;99425.41;4915858;29;20056;-52
2022/03/28 08:53:25;;;;;;;52.90;10.20;;;;;;;30.84;16.25;99428.66;4914423;29;20034;-50
2022/03/28 08:55:51;;;;;;;22.42;9.13;;;;;;;31.42;15.15;99428.53;4898810;29;20410;-51
2022/03/28 08:58:18;;;;;;;27.63;8.77;;;;;;;31.77;14.94;99434.72;4915735;29;20039;-51
2022/03/28 09:00:43;;;;;;;25.20;9.57;;;;;;;32.30;14.25;99429.09;4915688;29;20503;-52
2022/03/28 09:03:09;;;;;;;24.42;8.75;;;;;;;32.43;13.98;99425.38;4915678;29;20087;-51
2022/03/28 09:05:38;;;;;;;30.60;9.13;;;;;;;32.18;14.20;99429.81;4915603;29;20033;-52
2022/03/28 09:08:06;;;;;;;30.88;10.60;;;;;;;32.27;14.98;99427.84;4915563;29;20514;-51
2022/03/28 09:10:34;;;;;;;29.85;9.15;;;;;;;32.21;14.77;99424.50;4898743;29;20095;-51
2022/03/28 09:13:11;;;;;;;19.35;8.88;;;;;;;32.67;14.21;99427.50;4915507;29;20032;-52
2022/03/28 09:15:53;;;;;;;34.67;10.88;;;;;;;33.11;14.17;99422.56;4914288;29;20028;-51
2022/03/28 09:18:30;;;;;;;16.58;8.15;;;;;;;33.26;14.11;99415.69;4915568;29;20505;-51
2022/03/28 09:20:59;;;;;;;25.33;10.60;;;;;;;33.44;13.73;99429.94;4914234;29;20031;-51
2022/03/28 09:23:33;;;;;;;20.20;7.72;;;;;;;33.55;13.60;99412.06;4914168;29;20115;-51
2022/03/28 09:26:05;;;;;;;13.63;8.15;;;;;;;33.83;13.81;99415.00;4914021;29;20107;-52
2022/03/28 09:28:53;;;;;;;29.23;12.48;;;;;;;33.95;13.69;99406.03;4915736;29;20611;-52
2022/03/28 09:31:24;;;;;;;16.55;10.02;;;;;;;33.65;13.72;99410.09;4915392;29;20414;-52
2022/03/28 09:34:09;;;;;;;20.27;8.75;;;;;;;33.68;13.39;99409.41;4915350;29;20060;-51
2022/03/28 09:36:55;;;;;;;19.38;8.02;;;;;;;33.97;12.61;99401.06;4916623;29;20115;-51
2022/03/28 09:39:26;;;;;;;19.65;8.05;;;;;;;33.96;12.11;99402.16;4919092;29;20504;-52
2022/03/28 09:42:11;;;;;;;33.00;10.98;;;;;;;33.97;13.20;99397.53;4919001;29;20036;-51
2022/03/28 09:44:36;;;;;;;16.58;8.23;;;;;;;34.15;12.21;99388.03;4919056;29;20028;-52
2022/03/28 09:47:07;;;;;;;13.63;7.18;;;;;;;34.41;12.55;99382.22;4917708;29;20039;-51
2022/03/28 09:49:33;;;;;;;26.83;8.13;;;;;;;34.76;11.95;99389.09;4917639;29;20098;-51
2022/03/28 09:52:26;;;;;;;11.35;7.40;;;;;;;35.44;11.61;99379.28;4918783;29;20506;-52
2022/03/28 09:54:55;;;;;;;21.98;9.73;;;;;;;35.82;11.75;99378.75;4917869;29;20044;-51
2022/03/28 09:57:26;;;;;;;15.88;7.60;;;;;;;35.90;11.59;99375.03;4918729;29;20025;-52
2022/03/28 09:59:54;;;;;;;12.43;7.65;;;;;;;35.67;11.59;99382.25;4918705;29;20570;-52
2022/03/28 10:02:25;;;;;;;14.15;8.35;;;;;;;36.03;11.69;99367.53;4918748;29;20411;-52
2022/03/28 10:04:53;;;;;;;14.48;6.97;;;;;;;36.25;11.39;99368.06;4918854;29;20028;-52
2022/03/28 10:07:20;;;;;;;27.35;8.63;;;;;;;36.25;11.23;99368.06;4918633;29;20024;-52
2022/03/28 10:09:47;;;;;;;15.27;7.38;;;;;;;36.41;10.89;99368.00;4917367;29;20020;-52
2022/03/28 10:12:13;;;;;;;19.85;8.05;;;;;;;36.18;10.97;99360.47;4918411;29;20028;-52
2022/03/28 10:14:39;;;;;;;13.20;7.65;;;;;;;35.73;10.93;99367.97;4918519;29;20111;-51
2022/03/28 10:17:06;;;;;;;9.98;6.60;;;;;;;35.36;11.41;99357.28;4918398;29;20027;-52
2022/03/28 10:19:38;;;;;;;11.30;6.75;;;;;;;35.51;11.60;99343.97;4918412;29;20035;-52
2022/03/28 10:22:14;;;;;;;16.00;7.35;;;;;;;36.11;11.25;99349.34;4918418;29;20036;-51
2022/03/28 10:24:41;;;;;;;8.13;6.07;;;;;;;36.67;10.76;99343.59;4918098;29;20510;-51
2022/03/28 10:27:10;;;;;;;12.88;7.38;;;;;;;36.87;10.74;99343.59;4917096;29;20040;-52
2022/03/28 10:29:41;;;;;;;14.38;8.15;;;;;;;37.11;10.48;99346.03;4916917;29;20028;-51
2022/03/28 10:32:19;;;;;;;27.75;9.27;;;;;;;37.15;10.79;99338.69;4918116;29;20028;-52
2022/03/28 10:34:56;;;;;;;13.85;6.97;;;;;;;36.89;10.90;99330.34;4918181;29;20032;-52
2022/03/28 10:37:29;;;;;;;9.55;6.68;;;;;;;36.71;10.87;99330.78;4916847;29;20410;-52
2022/03/28 10:40:23;;;;;;;11.10;5.70;;;;;;;36.98;10.73;99322.69;4916834;29;20032;-52
2022/03/28 10:42:59;;;;;;;8.68;6.53;;;;;;;37.18;10.70;99324.25;4916802;29;20574;-52
2022/03/28 10:45:37;;;;;;;10.80;6.32;;;;;;;37.43;10.39;99320.38;4918015;29;20106;-52
2022/03/28 10:48:05;;;;;;;13.75;6.57;;;;;;;37.44;10.35;99317.28;4917931;29;20032;-52
2022/03/28 10:50:38;;;;;;;9.35;5.55;;;;;;;37.18;10.73;99320.75;4917822;29;20089;-52
2022/03/28 10:53:16;;;;;;;11.60;6.68;;;;;;;37.01;10.57;99315.69;4917960;29;20511;-52
2022/03/28 10:55:48;;;;;;;10.57;6.22;;;;;;;37.07;10.70;99311.53;4916735;29;20020;-50
2022/03/28 10:58:24;;;;;;;15.85;6.35;;;;;;;37.69;9.96;99311.44;4916547;29;20039;-52
2022/03/28 11:01:21;;;;;;;15.68;8.13;;;;;;;37.60;10.70;99298.00;4917701;29;20076;-49
2022/03/28 11:03:50;;;;;;;14.50;11.57;;;;;;;37.75;9.91;99291.59;4913273;29;20036;-49
2022/03/28 11:06:19;;;;;;;15.77;8.43;;;;;;;37.67;10.02;99291.84;4917541;29;20028;-48
2022/03/28 11:08:58;;;;;;;11.25;6.80;;;;;;;37.77;10.13;99285.72;4916387;29;20024;-48
2022/03/28 11:11:26;;;;;;;11.18;7.53;;;;;;;37.94;9.86;99282.47;4917450;29;20036;-49
2022/03/28 11:14:03;;;;;;;10.88;6.68;;;;;;;38.13;9.63;99281.59;4916146;29;20119;-49
2022/03/28 11:16:52;;;;;;;9.68;6.72;;;;;;;38.25;9.69;99277.03;4917609;29;20095;-48
2022/03/28 11:19:29;;;;;;;16.42;7.22;;;;;;;38.13;9.77;99281.59;4916090;29;20028;-49
2022/03/28 11:22:04;;;;;;;15.23;7.35;;;;;;;37.97;9.72;99278.19;4917366;29;20078;-51
2022/03/28 11:24:54;;;;;;;13.63;6.57;;;;;;;37.65;9.85;99272.25;4917060;29;20048;-52
2022/03/28 11:27:31;;;;;;;13.18;7.60;;;;;;;37.06;10.07;99266.94;4917202;29;20028;-52
2022/03/28 11:30:12;;;;;;;18.58;6.78;;;;;;;36.81;10.27;99268.44;4917248;29;20447;-52
2022/03/28 11:32:38;;;;;;;12.38;6.15;;;;;;;36.59;10.10;99257.84;4917103;29;20495;-51